createdAt,value
2022-09-21T00:02:18.430Z,99787.69
2022-09-21T00:04:47.807Z,99786.95
2022-09-21T00:07:17.797Z,99790.01
2022-09-21T00:09:46.997Z,99788.64
2022-09-21T00:12:16.917Z,99792.75
2022-09-21T00:14:48.290Z,99789.91
2022-09-21T00:17:17.217Z,99790.02
2022-09-21T00:19:46.410Z,99788.02
2022-09-21T00:22:15.649Z,99785.91
2022-09-21T00:24:45.104Z,99784.86
2022-09-21T00:27:14.781Z,99791.39
2022-09-21T00:29:44.493Z,99784.54
2022-09-21T00:32:15.572Z,99788.65
2022-09-21T00:34:45.555Z,99784.86
2022-09-21T00:37:16.193Z,99792.33
2022-09-21T00:39:46.327Z,99788.22
2022-09-21T00:42:22.088Z,99791.17
2022-09-21T00:44:51.744Z,99786.64
2022-09-21T00:47:25.615Z,99796.02
2022-09-21T00:49:56.237Z,99795.70
2022-09-21T00:52:25.662Z,99786.23
2022-09-21T00:55:00.140Z,99788.13
2022-09-21T00:57:32.092Z,99772.42
2022-09-21T01:00:03.362Z,99768.84
2022-09-21T01:02:34.528Z,99772.64
2022-09-21T01:05:05.516Z,99775.28
2022-09-21T01:07:37.506Z,99776.12
2022-09-21T01:10:13.033Z,99780.76
2022-09-21T01:13:13.568Z,99779.60
2022-09-21T01:15:52.330Z,99777.39
2022-09-21T01:18:47.392Z,99777.60
2022-09-21T01:21:26.495Z,99775.70
2022-09-21T01:24:21.337Z,99778.23
2022-09-21T01:26:59.347Z,99776.96
2022-09-21T01:29:45.797Z,99770.74
2022-09-21T01:32:35.113Z,99775.48
2022-09-21T01:35:21.008Z,99774.32
2022-09-21T01:38:04.024Z,99772.64
2022-09-21T01:40:47.598Z,99779.70
2022-09-21T01:43:23.299Z,99781.72
2022-09-21T01:45:54.868Z,99785.51
2022-09-21T01:48:25.232Z,99787.41
2022-09-21T01:50:56.753Z,99785.82
2022-09-21T01:53:42.181Z,99788.14
2022-09-21T01:56:33.626Z,99776.12
2022-09-21T01:59:29.381Z,99780.45
2022-09-21T02:02:03.194Z,99771.38
2022-09-21T02:04:35.131Z,99782.34
2022-09-21T02:07:04.698Z,99780.66
2022-09-21T02:09:37.283Z,99786.35
2022-09-21T02:12:07.066Z,99779.50
2022-09-21T02:14:37.065Z,99777.29
2022-09-21T02:17:25.612Z,99789.94
2022-09-21T02:20:20.999Z,99790.15
2022-09-21T02:23:04.145Z,99786.25
2022-09-21T02:25:59.654Z,99782.67
2022-09-21T02:28:49.963Z,99797.73
2022-09-21T02:31:44.049Z,99799.42
2022-09-21T02:34:24.783Z,99795.31
2022-09-21T02:37:16.893Z,99797.52
2022-09-21T02:40:03.961Z,99795.09
2022-09-21T02:42:34.814Z,99792.36
2022-09-21T02:45:17.210Z,99797.09
2022-09-21T02:47:59.139Z,99800.05
2022-09-21T02:50:34.555Z,99795.94
2022-09-21T02:53:05.664Z,99803.63
2022-09-21T02:55:35.815Z,99803.95
2022-09-21T02:58:06.739Z,99800.05
2022-09-21T03:00:37.605Z,99806.27
2022-09-21T03:03:19.875Z,99807.95
2022-09-21T03:05:52.622Z,99808.17
2022-09-21T03:08:24.250Z,99812.06
2022-09-21T03:10:54.794Z,99810.69
2022-09-21T03:13:24.552Z,99820.50
2022-09-21T03:16:02.920Z,99818.81
2022-09-21T03:18:34.822Z,99817.75
2022-09-21T03:21:04.917Z,99821.86
2022-09-21T03:23:34.024Z,99829.88
2022-09-21T03:26:06.370Z,99830.08
2022-09-21T03:28:36.995Z,99822.92
2022-09-21T03:31:08.764Z,99822.08
2022-09-21T03:33:38.921Z,99824.29
2022-09-21T03:36:10.113Z,99821.86
2022-09-21T03:38:41.150Z,99819.23
2022-09-21T03:41:10.712Z,99820.28
2022-09-21T03:43:40.988Z,99827.66
2022-09-21T03:46:12.781Z,99818.17
2022-09-21T03:48:44.686Z,99821.33
2022-09-21T03:51:14.378Z,99813.42
2022-09-21T03:53:43.804Z,99815.11
2022-09-21T03:56:14.163Z,99823.64
2022-09-21T03:58:43.808Z,99824.70
2022-09-21T04:01:13.872Z,99829.02
2022-09-21T04:03:43.371Z,99834.19
2022-09-21T04:06:15.746Z,99830.50
2022-09-21T04:08:46.194Z,99832.08
2022-09-21T04:11:18.399Z,99832.83
2022-09-21T04:13:52.257Z,99840.73
2022-09-21T04:16:22.479Z,99845.16
2022-09-21T04:18:52.092Z,99845.89
2022-09-21T04:21:24.677Z,99839.14
2022-09-21T04:23:55.517Z,99838.62
2022-09-21T04:26:32.127Z,99841.36
2022-09-21T04:29:01.539Z,99848.42
2022-09-21T04:31:31.501Z,99847.05
2022-09-21T04:34:02.539Z,99851.16
2022-09-21T04:36:36.516Z,99852.63
2022-09-21T04:39:04.660Z,99858.00
2022-09-21T04:41:34.940Z,99851.27
2022-09-21T04:44:07.404Z,99851.47
2022-09-21T04:46:38.384Z,99852.63
2022-09-21T04:49:08.997Z,99852.20
2022-09-21T04:51:40.409Z,99854.00
2022-09-21T04:54:10.556Z,99854.63
2022-09-21T04:56:40.600Z,99855.78
2022-09-21T04:59:10.580Z,99855.78
2022-09-21T05:01:41.471Z,99858.53
2022-09-21T05:04:11.596Z,99860.95
2022-09-21T05:06:42.058Z,99862.11
2022-09-21T05:09:31.276Z,99863.16
2022-09-21T05:12:02.812Z,99855.26
2022-09-21T05:14:32.963Z,99861.05
2022-09-21T05:17:02.695Z,99864.42
2022-09-21T05:19:32.485Z,99858.52
2022-09-21T05:22:02.903Z,99859.67
2022-09-21T05:24:33.966Z,99858.94
2022-09-21T05:27:04.069Z,99852.71
2022-09-21T05:29:34.696Z,99860.41
2022-09-21T05:32:15.909Z,99870.00
2022-09-21T05:35:23.404Z,99870.00
2022-09-21T05:38:01.627Z,99874.01
2022-09-21T05:40:32.086Z,99867.90
2022-09-21T05:43:02.942Z,99866.63
2022-09-21T05:45:33.482Z,99862.20
2022-09-21T05:48:17.349Z,99865.14
2022-09-21T05:50:59.728Z,99872.94
2022-09-21T05:53:52.493Z,99877.38
2022-09-21T05:56:42.679Z,99876.95
2022-09-21T05:59:54.743Z,99877.48
2022-09-21T06:03:00.189Z,99882.53
2022-09-21T06:05:30.612Z,99883.79
2022-09-21T06:08:00.821Z,99879.25
2022-09-21T06:10:34.009Z,99881.99
2022-09-21T06:13:04.697Z,99895.27
2022-09-21T06:15:37.951Z,99888.73
2022-09-21T06:18:09.717Z,99886.62
2022-09-21T06:20:41.481Z,99886.83
2022-09-21T06:23:14.405Z,99888.11
2022-09-21T06:25:43.617Z,99890.75
2022-09-21T06:28:13.361Z,99894.02
2022-09-21T06:30:45.104Z,99889.69
2022-09-21T06:33:16.286Z,99892.75
2022-09-21T06:35:55.972Z,99903.50
2022-09-21T06:38:27.446Z,99899.60
2022-09-21T06:41:04.387Z,99894.12
2022-09-21T06:43:35.973Z,99896.33
2022-09-21T06:46:06.645Z,99897.39
2022-09-21T06:48:38.988Z,99897.92
2022-09-21T06:51:08.546Z,99896.23
2022-09-21T06:53:38.796Z,99900.45
2022-09-21T06:56:09.601Z,99908.98
2022-09-21T06:58:39.709Z,99896.55
2022-09-21T07:01:12.410Z,99910.05
2022-09-21T07:03:43.016Z,99907.92
2022-09-21T07:06:15.783Z,99910.24
2022-09-21T07:11:19.707Z,99923.21
2022-09-21T07:13:50.349Z,99919.31
2022-09-21T07:16:21.621Z,99920.37
2022-09-21T07:18:52.132Z,99924.17
2022-09-21T07:21:23.491Z,99922.58
2022-09-21T07:23:53.696Z,99925.64
2022-09-21T07:26:24.228Z,99929.86
2022-09-21T07:28:55.875Z,99932.27
2022-09-21T07:31:27.035Z,99928.56
2022-09-21T07:34:00.556Z,99932.25
2022-09-21T07:36:30.895Z,99940.37
2022-09-21T07:39:00.993Z,99937.94
2022-09-21T07:41:31.719Z,99936.56
2022-09-21T07:44:02.102Z,99939.09
2022-09-21T07:46:33.621Z,99938.78
2022-09-21T07:49:05.952Z,99945.33
2022-09-21T07:51:36.461Z,99946.81
2022-09-21T07:54:07.081Z,99945.13
2022-09-21T07:56:38.243Z,99949.14
2022-09-21T07:59:07.375Z,99947.67
2022-09-21T08:01:40.236Z,99952.94
2022-09-21T08:04:11.723Z,99952.41
2022-09-21T08:06:42.267Z,99956.42
2022-09-21T08:09:13.571Z,99961.91
2022-09-21T08:11:45.931Z,99955.58
2022-09-21T08:14:16.731Z,99959.48
2022-09-21T08:16:49.841Z,99957.05
2022-09-21T08:19:21.438Z,99959.91
2022-09-21T08:21:56.280Z,99961.47
2022-09-21T08:24:23.629Z,99958.08
2022-09-21T08:26:54.354Z,99962.08
2022-09-21T08:29:25.467Z,99965.77
2022-09-21T08:31:56.711Z,99958.70
2022-09-21T08:34:27.557Z,99959.00
2022-09-21T08:36:56.988Z,99959.11
2022-09-21T08:39:27.427Z,99957.61
2022-09-21T08:42:05.189Z,99952.36
2022-09-21T08:44:51.818Z,99958.59
2022-09-21T08:47:40.733Z,99950.24
2022-09-21T08:50:40.173Z,99959.63
2022-09-21T08:53:23.730Z,99958.38
2022-09-21T08:55:58.006Z,99961.88
2022-09-21T08:58:29.527Z,99958.28
2022-09-21T09:01:27.566Z,99970.95
2022-09-21T09:04:25.269Z,99972.19
2022-09-21T09:07:23.822Z,99964.17
2022-09-21T09:10:08.310Z,99972.01
2022-09-21T09:12:57.412Z,99970.95
2022-09-21T09:15:40.596Z,99966.83
2022-09-21T09:18:21.097Z,99972.32
2022-09-21T09:20:58.931Z,99974.01
2022-09-21T09:23:40.894Z,99972.32
2022-09-21T09:26:33.105Z,99977.06
2022-09-21T09:29:39.850Z,99972.73
2022-09-21T09:32:15.528Z,99976.64
2022-09-21T09:34:56.765Z,99977.27
2022-09-21T09:37:31.190Z,99979.69
2022-09-21T09:40:01.317Z,99975.89
2022-09-21T09:43:12.800Z,99981.26
2022-09-21T09:45:53.876Z,99975.23
2022-09-21T09:49:06.778Z,99983.16
2022-09-21T09:51:40.439Z,99985.69
2022-09-21T09:54:17.104Z,99983.38
2022-09-21T09:56:46.912Z,99986.75
2022-09-21T09:59:43.022Z,99992.55
2022-09-21T10:02:26.436Z,99986.31
2022-09-21T10:05:06.583Z,99985.87
2022-09-21T10:07:48.126Z,99987.76
2022-09-21T10:10:36.661Z,99981.39
2022-09-21T10:13:17.555Z,99988.02
2022-09-21T10:15:56.802Z,99984.92
2022-09-21T10:18:39.306Z,99986.05
2022-09-21T10:21:12.373Z,99980.73
2022-09-21T10:23:44.243Z,99979.80
2022-09-21T10:26:14.736Z,99982.11
2022-09-21T10:29:06.178Z,99983.88
2022-09-21T10:31:37.666Z,99984.28
2022-09-21T10:34:13.720Z,99977.69
2022-09-21T10:36:47.093Z,99984.20
2022-09-21T10:39:33.968Z,99994.00
2022-09-21T10:42:16.081Z,99986.99
2022-09-21T10:44:53.113Z,99992.80
2022-09-21T10:47:36.035Z,99989.08
2022-09-21T10:50:25.583Z,99993.29
2022-09-21T10:53:09.557Z,99999.85
2022-09-21T10:55:58.517Z,100001.36
2022-09-21T10:58:19.332Z,99991.56
2022-09-21T11:00:51.582Z,100004.81
2022-09-21T11:03:39.506Z,100006.98
2022-09-21T11:06:30.854Z,100002.59
2022-09-21T11:09:05.586Z,100009.27
2022-09-21T11:11:55.342Z,100005.06
2022-09-21T11:14:58.802Z,100006.96
2022-09-21T11:18:01.453Z,100000.94
2022-09-21T11:20:39.117Z,100001.47
2022-09-21T11:23:46.908Z,99999.69
2022-09-21T11:26:32.838Z,99995.13
2022-09-21T11:29:51.497Z,99994.16
2022-09-21T11:32:35.069Z,99991.01
2022-09-21T11:35:34.342Z,99993.41
2022-09-21T11:38:20.617Z,99994.78
2022-09-21T11:41:09.877Z,99992.03
2022-09-21T11:43:51.342Z,99994.25
2022-09-21T11:46:54.982Z,99998.99
2022-09-21T11:49:35.083Z,99997.48
2022-09-21T11:52:49.598Z,99994.52
2022-09-21T11:55:32.986Z,99995.23
2022-09-21T11:58:16.412Z,99994.80
2022-09-21T12:01:19.118Z,99999.72
2022-09-21T12:04:07.601Z,100000.96
2022-09-21T12:07:13.022Z,99994.27
2022-09-21T12:09:50.122Z,99988.86
2022-09-21T12:12:26.042Z,99992.31
2022-09-21T12:15:12.841Z,99991.81
2022-09-21T12:18:11.257Z,99981.92
2022-09-21T12:20:46.611Z,99979.00
2022-09-21T12:23:45.439Z,99979.91
2022-09-21T12:26:18.538Z,99984.51
2022-09-21T12:28:59.802Z,99981.61
2022-09-21T12:31:52.474Z,99989.72
2022-09-21T12:34:35.506Z,99993.45
2022-09-21T12:37:31.583Z,100004.97
2022-09-21T12:40:27.780Z,100011.17
2022-09-21T12:43:31.034Z,100013.59
2022-09-21T12:46:20.990Z,100013.46
2022-09-21T12:48:51.646Z,100014.34
2022-09-21T12:51:35.333Z,100016.43
2022-09-21T12:54:16.162Z,100013.31
2022-09-21T12:56:56.435Z,100018.45
2022-09-21T12:59:51.304Z,100013.08
2022-09-21T13:02:30.251Z,100016.27
2022-09-21T13:05:19.869Z,100008.64
2022-09-21T13:08:16.211Z,100010.86
2022-09-21T13:10:54.912Z,100009.48
2022-09-21T13:13:31.944Z,100008.12
2022-09-21T13:16:04.294Z,100005.37
2022-09-21T13:18:36.848Z,100013.92
2022-09-21T13:21:22.119Z,100010.64
2022-09-21T13:24:03.902Z,100011.14
2022-09-21T13:26:38.031Z,100009.11
2022-09-21T13:29:23.488Z,100005.70
2022-09-21T13:32:14.105Z,100007.25
2022-09-21T13:34:45.035Z,100002.38
2022-09-21T13:37:25.801Z,100004.69
2022-09-21T13:40:16.567Z,99999.41
2022-09-21T13:42:48.800Z,100000.47
2022-09-21T13:45:24.488Z,99999.94
2022-09-21T13:47:57.440Z,99997.19
2022-09-21T13:50:42.564Z,100001.31
2022-09-21T13:53:35.304Z,100004.59
2022-09-21T13:56:11.734Z,100008.41
2022-09-21T13:58:45.352Z,100011.38
2022-09-21T14:01:45.693Z,100016.56
2022-09-21T14:03:58.155Z,100012.44
2022-09-21T14:06:35.504Z,100014.66
2022-09-21T14:09:08.585Z,100025.12
2022-09-21T14:11:41.608Z,100016.96
2022-09-21T14:14:37.962Z,100021.39
2022-09-21T14:17:36.804Z,100020.55
2022-09-21T14:20:33.560Z,100020.11
2022-09-21T14:23:19.298Z,100020.11
2022-09-21T14:25:54.123Z,100016.43
2022-09-21T14:28:39.788Z,100013.37
2022-09-21T14:31:29.727Z,100016.66
2022-09-21T14:34:02.243Z,100011.38
2022-09-21T14:36:42.005Z,100011.59
2022-09-21T14:39:18.702Z,100013.19
2022-09-21T14:41:50.760Z,100018.38
2022-09-21T14:44:25.604Z,100017.00
2022-09-21T14:47:06.318Z,100022.50
2022-09-21T14:50:07.513Z,100028.09
2022-09-21T14:53:02.654Z,100029.99
2022-09-21T14:56:11.506Z,100037.08
2022-09-21T14:59:15.496Z,100034.55
2022-09-21T15:01:59.394Z,100037.73
2022-09-21T15:05:24.002Z,100038.18
2022-09-21T15:08:46.227Z,100047.17
2022-09-21T15:11:29.763Z,100058.29
2022-09-21T15:14:27.501Z,100052.70
2022-09-21T15:16:56.998Z,100058.72
2022-09-21T15:19:30.285Z,100064.22
2022-09-21T15:22:19.108Z,100062.00
2022-09-21T15:24:55.489Z,100067.18
2022-09-21T15:27:32.480Z,100072.67
2022-09-21T15:30:04.368Z,100070.14
2022-09-21T15:32:45.760Z,100074.27
2022-09-21T15:35:34.643Z,100076.08
2022-09-21T15:38:04.143Z,100072.70
2022-09-21T15:40:36.681Z,100077.16
2022-09-21T15:43:19.697Z,100079.80
2022-09-21T15:46:03.935Z,100082.55
2022-09-21T15:48:41.133Z,100084.23
2022-09-21T15:51:20.861Z,100088.58
2022-09-21T15:54:00.919Z,100091.75
2022-09-21T15:56:30.406Z,100089.44
2022-09-21T15:59:03.170Z,100094.62
2022-09-21T16:01:32.823Z,100099.27
2022-09-21T16:04:05.930Z,100100.11
2022-09-21T16:06:41.473Z,100106.13
2022-09-21T16:09:35.707Z,100103.28
2022-09-21T16:12:44.119Z,100103.30
2022-09-21T16:15:28.991Z,100104.38
2022-09-21T16:18:06.930Z,100105.43
2022-09-21T16:20:50.882Z,100111.23
2022-09-21T16:23:25.311Z,100107.75
2022-09-21T16:26:01.752Z,100109.75
2022-09-21T16:28:42.891Z,100111.44
2022-09-21T16:31:32.091Z,100111.75
2022-09-21T16:34:06.722Z,100110.80
2022-09-21T16:36:40.499Z,100116.07
2022-09-21T16:39:15.287Z,100111.11
2022-09-21T16:41:50.706Z,100114.70
2022-09-21T16:44:25.350Z,100114.59
2022-09-21T16:47:01.299Z,100113.66
2022-09-21T16:49:34.904Z,100117.45
2022-09-21T16:52:05.523Z,100122.00
2022-09-21T16:54:37.219Z,100120.21
2022-09-21T16:57:06.591Z,100126.77
2022-09-21T16:59:36.224Z,100130.14
2022-09-21T17:02:06.059Z,100127.92
2022-09-21T17:04:37.587Z,100127.40
2022-09-21T17:07:07.290Z,100133.73
2022-09-21T17:09:38.461Z,100131.30
2022-09-21T17:12:08.961Z,100135.00
2022-09-21T17:14:45.637Z,100141.12
2022-09-21T17:17:23.925Z,100140.59
2022-09-21T17:19:54.466Z,100143.55
2022-09-21T17:22:25.635Z,100147.88
2022-09-21T17:24:55.800Z,100155.70
2022-09-21T17:27:28.223Z,100147.89
2022-09-21T17:29:59.791Z,100154.02
2022-09-21T17:32:29.243Z,100149.76
2022-09-21T17:35:17.450Z,100155.67
2022-09-21T17:37:46.882Z,100157.02
2022-09-21T17:40:17.998Z,100148.45
2022-09-21T17:42:48.330Z,100152.25
2022-09-21T17:45:56.294Z,100157.00
2022-09-21T17:48:29.557Z,100156.25
2022-09-21T17:50:59.841Z,100152.98
2022-09-21T17:53:37.493Z,100158.45
2022-09-21T17:56:33.344Z,100157.50
2022-09-21T17:59:04.800Z,100162.02
2022-09-21T18:01:39.678Z,100161.80
2022-09-21T18:04:14.073Z,100157.05
2022-09-21T18:06:46.827Z,100156.09
2022-09-21T18:09:17.821Z,100159.89
2022-09-21T18:11:55.794Z,100154.62
2022-09-21T18:14:52.715Z,100149.13
2022-09-21T18:17:45.682Z,100153.45
2022-09-21T18:20:20.678Z,100152.81
2022-09-21T18:23:20.991Z,100145.27
2022-09-21T18:25:54.777Z,100153.06
2022-09-21T18:28:43.996Z,100157.80
2022-09-21T18:31:31.266Z,100160.74
2022-09-21T18:34:35.422Z,100161.80
2022-09-21T18:37:33.020Z,100158.53
2022-09-21T18:40:29.440Z,100160.95
2022-09-21T18:43:26.520Z,100160.10
2022-09-21T18:46:13.374Z,100157.89
2022-09-21T18:49:06.692Z,100162.94
2022-09-21T18:51:50.883Z,100169.47
2022-09-21T18:54:26.687Z,100158.19
2022-09-21T18:56:56.797Z,100165.65
2022-09-21T18:59:31.547Z,100159.73
2022-09-21T19:01:59.802Z,100162.77
2022-09-21T19:04:29.809Z,100169.27
2022-09-21T19:07:39.108Z,100163.95
2022-09-21T19:10:26.683Z,100167.91
2022-09-21T19:13:08.179Z,100169.09
2022-09-21T19:16:00.833Z,100163.38
2022-09-21T19:18:45.065Z,100160.31
2022-09-21T19:21:40.047Z,100165.27
2022-09-21T19:24:23.328Z,100164.55
2022-09-21T19:26:57.602Z,100170.98
2022-09-21T19:29:54.348Z,100166.59
2022-09-21T19:32:40.457Z,100167.39
2022-09-21T19:35:25.946Z,100162.03
2022-09-21T19:37:57.098Z,100161.63
2022-09-21T19:40:30.288Z,100158.48
2022-09-21T19:43:07.412Z,100165.97
2022-09-21T19:46:06.172Z,100165.88
2022-09-21T19:48:52.824Z,100166.84
2022-09-21T19:51:40.011Z,100170.75
2022-09-21T19:54:40.182Z,100176.03
2022-09-21T19:57:37.388Z,100173.08
2022-09-21T20:00:12.421Z,100166.76
2022-09-21T20:03:05.508Z,100172.23
2022-09-21T20:06:07.332Z,100166.76
2022-09-21T20:08:54.443Z,100166.44
2022-09-21T20:12:03.827Z,100164.86
2022-09-21T20:14:55.704Z,100162.65
2022-09-21T20:17:36.047Z,100166.97
2022-09-21T20:20:25.369Z,100160.11
2022-09-21T20:22:55.050Z,100163.17
2022-09-21T20:25:47.075Z,100156.00
2022-09-21T20:28:17.263Z,100155.89
2022-09-21T20:30:45.985Z,100159.67
2022-09-21T20:33:20.475Z,100152.27
2022-09-21T20:35:55.910Z,100158.48
2022-09-21T20:38:26.121Z,100153.73
2022-09-21T20:40:55.571Z,100150.98
2022-09-21T20:43:29.031Z,100147.41
2022-09-21T20:45:59.005Z,100146.77
2022-09-21T20:48:28.187Z,100148.34
2022-09-21T20:50:59.288Z,100154.22
2022-09-21T20:53:29.200Z,100147.38
2022-09-21T20:55:58.734Z,100151.48
2022-09-21T20:58:28.210Z,100153.49
2022-09-21T21:01:05.945Z,100151.08
2022-09-21T21:03:35.873Z,100150.88
2022-09-21T21:06:14.021Z,100155.83
2022-09-21T21:08:43.436Z,100153.41
2022-09-21T21:11:14.414Z,100152.24
2022-09-21T21:13:43.621Z,100146.77
2022-09-21T21:16:13.343Z,100153.61
2022-09-21T21:18:42.527Z,100151.72
2022-09-21T21:21:11.327Z,100145.39
2022-09-21T21:23:59.613Z,100146.64
2022-09-21T21:26:57.315Z,100145.53
2022-09-21T21:29:01.208Z,100147.42
2022-09-21T21:31:31.028Z,100155.00
2022-09-21T21:34:00.953Z,100149.92
2022-09-21T21:36:31.259Z,100149.08
2022-09-21T21:39:01.168Z,100152.34
2022-09-21T21:41:32.457Z,100149.61
2022-09-21T21:44:02.639Z,100147.15
2022-09-21T21:46:31.974Z,100143.97
2022-09-21T21:49:02.609Z,100142.45
2022-09-21T21:51:33.103Z,100144.54
2022-09-21T21:54:02.560Z,100148.41
2022-09-21T21:56:32.014Z,100143.66
2022-09-21T21:59:01.264Z,100148.93
2022-09-21T22:01:30.815Z,100147.88
2022-09-21T22:04:01.682Z,100147.77
2022-09-21T22:06:32.363Z,100148.93
2022-09-21T22:09:02.668Z,100152.31
2022-09-21T22:11:32.123Z,100158.75
2022-09-21T22:14:04.937Z,100155.70
2022-09-21T22:16:38.036Z,100151.59
2022-09-21T22:19:07.986Z,100145.79
2022-09-21T22:21:42.932Z,100145.47
2022-09-21T22:24:13.215Z,100150.94
2022-09-21T22:26:45.158Z,100142.20
2022-09-21T22:29:15.132Z,100138.55
2022-09-21T22:31:47.990Z,100139.39
2022-09-21T22:34:17.543Z,100136.28
2022-09-21T22:36:47.253Z,100135.03
2022-09-21T22:39:16.858Z,100137.05
2022-09-21T22:41:46.063Z,100132.53
2022-09-21T22:44:14.966Z,100127.38
2022-09-21T22:46:43.843Z,100130.95
2022-09-21T22:49:12.897Z,100135.39
2022-09-21T22:51:41.721Z,100124.64
2022-09-21T22:54:10.571Z,100132.53
2022-09-21T22:56:40.268Z,100128.95
2022-09-21T22:59:09.315Z,100130.20
2022-09-21T23:01:40.385Z,100133.45
2022-09-21T23:04:11.640Z,100132.81
2022-09-21T23:06:43.156Z,100132.70
2022-09-21T23:09:19.499Z,100136.13
2022-09-21T23:11:51.857Z,100134.95
2022-09-21T23:14:21.859Z,100137.58
2022-09-21T23:16:51.087Z,100143.45
2022-09-21T23:19:20.332Z,100144.91
2022-09-21T23:21:51.184Z,100143.61
2022-09-21T23:24:20.478Z,100143.70
2022-09-21T23:26:51.353Z,100143.13
2022-09-21T23:29:20.220Z,100143.84
2022-09-21T23:31:49.271Z,100142.56
2022-09-21T23:34:18.693Z,100146.22
2022-09-21T23:36:48.211Z,100139.77
2022-09-21T23:39:17.484Z,100148.38
2022-09-21T23:41:46.523Z,100138.00
2022-09-21T23:44:17.670Z,100137.75
2022-09-21T23:46:47.535Z,100133.39
2022-09-21T23:49:18.120Z,100136.92
2022-09-21T23:51:47.060Z,100138.11
2022-09-21T23:54:16.118Z,100135.13
2022-09-21T23:56:45.320Z,100130.11
2022-09-21T23:59:15.040Z,100129.98
